sensor_id;sensor_type;location;lat;lon;timestamp;P1;durP1;ratioP1;P2;durP2;ratioP2
75616;SDS011;64200;55.426;37.758;2023-05-29T00:00:25;4.30;;;2.20;;
75616;SDS011;64200;55.426;37.758;2023-05-29T00:05:26;11.02;;;2.10;;
75616;SDS011;64200;55.426;37.758;2023-05-29T00:10:27;3.30;;;2.10;;
75616;SDS011;64200;55.426;37.758;2023-05-29T00:15:27;6.00;;;2.25;;
75616;SDS011;64200;55.426;37.758;2023-05-29T00:20:28;3.88;;;2.30;;
75616;SDS011;64200;55.426;37.758;2023-05-29T00:25:29;6.55;;;2.10;;
75616;SDS011;64200;55.426;37.758;2023-05-29T00:30:30;5.20;;;2.10;;
75616;SDS011;64200;55.426;37.758;2023-05-29T00:35:30;5.22;;;2.10;;
75616;SDS011;64200;55.426;37.758;2023-05-29T00:40:31;5.38;;;2.30;;
75616;SDS011;64200;55.426;37.758;2023-05-29T00:45:31;4.63;;;2.03;;
75616;SDS011;64200;55.426;37.758;2023-05-29T00:50:36;4.05;;;1.80;;
75616;SDS011;64200;55.426;37.758;2023-05-29T00:55:37;2.30;;;1.75;;
75616;SDS011;64200;55.426;37.758;2023-05-29T01:00:38;2.58;;;1.77;;
75616;SDS011;64200;55.426;37.758;2023-05-29T01:05:39;5.53;;;1.90;;
75616;SDS011;64200;55.426;37.758;2023-05-29T01:10:40;4.22;;;1.95;;
75616;SDS011;64200;55.426;37.758;2023-05-29T01:15:58;5.15;;;2.00;;
75616;SDS011;64200;55.426;37.758;2023-05-29T01:21:11;3.53;;;1.80;;
75616;SDS011;64200;55.426;37.758;2023-05-29T01:32:13;4.80;;;1.60;;
75616;SDS011;64200;55.426;37.758;2023-05-29T01:37:14;5.32;;;1.95;;
75616;SDS011;64200;55.426;37.758;2023-05-29T01:42:14;3.47;;;1.90;;
75616;SDS011;64200;55.426;37.758;2023-05-29T01:47:15;3.53;;;1.48;;
75616;SDS011;64200;55.426;37.758;2023-05-29T01:52:16;4.50;;;2.20;;
75616;SDS011;64200;55.426;37.758;2023-05-29T01:57:17;3.20;;;1.98;;
75616;SDS011;64200;55.426;37.758;2023-05-29T02:02:21;3.83;;;2.28;;
75616;SDS011;64200;55.426;37.758;2023-05-29T02:07:22;3.38;;;1.88;;
75616;SDS011;64200;55.426;37.758;2023-05-29T02:12:22;3.33;;;2.63;;
75616;SDS011;64200;55.426;37.758;2023-05-29T02:17:23;3.70;;;2.00;;
75616;SDS011;64200;55.426;37.758;2023-05-29T02:22:24;6.80;;;2.00;;
75616;SDS011;64200;55.426;37.758;2023-05-29T02:27:25;2.90;;;1.87;;
75616;SDS011;64200;55.426;37.758;2023-05-29T02:32:25;3.63;;;2.07;;
75616;SDS011;64200;55.426;37.758;2023-05-29T02:37:27;3.05;;;1.77;;
75616;SDS011;64200;55.426;37.758;2023-05-29T02:42:28;3.65;;;1.88;;
75616;SDS011;64200;55.426;37.758;2023-05-29T02:47:28;4.30;;;1.98;;
75616;SDS011;64200;55.426;37.758;2023-05-29T02:52:30;4.22;;;2.10;;
75616;SDS011;64200;55.426;37.758;2023-05-29T02:57:31;4.45;;;1.92;;
75616;SDS011;64200;55.426;37.758;2023-05-29T03:02:32;2.42;;;1.50;;
75616;SDS011;64200;55.426;37.758;2023-05-29T03:07:34;9.57;;;2.08;;
75616;SDS011;64200;55.426;37.758;2023-05-29T03:12:35;3.27;;;1.50;;
75616;SDS011;64200;55.426;37.758;2023-05-29T03:17:35;3.47;;;1.80;;
75616;SDS011;64200;55.426;37.758;2023-05-29T03:22:38;6.25;;;1.92;;
75616;SDS011;64200;55.426;37.758;2023-05-29T03:27:38;4.47;;;2.00;;
75616;SDS011;64200;55.426;37.758;2023-05-29T03:32:39;2.83;;;1.80;;
75616;SDS011;64200;55.426;37.758;2023-05-29T03:37:39;4.13;;;2.00;;
75616;SDS011;64200;55.426;37.758;2023-05-29T03:42:40;5.90;;;2.20;;
75616;SDS011;64200;55.426;37.758;2023-05-29T03:47:40;4.50;;;2.13;;
75616;SDS011;64200;55.426;37.758;2023-05-29T03:52:41;5.20;;;2.10;;
75616;SDS011;64200;55.426;37.758;2023-05-29T03:57:42;4.25;;;1.95;;
75616;SDS011;64200;55.426;37.758;2023-05-29T04:02:43;3.90;;;2.10;;
75616;SDS011;64200;55.426;37.758;2023-05-29T04:07:43;4.45;;;2.30;;
75616;SDS011;64200;55.426;37.758;2023-05-29T04:12:44;7.57;;;2.35;;
75616;SDS011;64200;55.426;37.758;2023-05-29T04:17:44;3.23;;;2.13;;
75616;SDS011;64200;55.426;37.758;2023-05-29T04:22:45;5.35;;;1.65;;
75616;SDS011;64200;55.426;37.758;2023-05-29T04:27:45;4.03;;;2.17;;
75616;SDS011;64200;55.426;37.758;2023-05-29T04:32:48;3.15;;;1.83;;
75616;SDS011;64200;55.426;37.758;2023-05-29T04:37:49;3.80;;;1.80;;
75616;SDS011;64200;55.426;37.758;2023-05-29T04:42:49;5.03;;;2.10;;
75616;SDS011;64200;55.426;37.758;2023-05-29T04:47:50;2.95;;;1.70;;
75616;SDS011;64200;55.426;37.758;2023-05-29T04:52:52;4.07;;;1.77;;
75616;SDS011;64200;55.426;37.758;2023-05-29T04:57:53;4.67;;;1.93;;
75616;SDS011;64200;55.426;37.758;2023-05-29T05:02:54;2.30;;;1.40;;
75616;SDS011;64200;55.426;37.758;2023-05-29T05:07:55;2.60;;;1.00;;
75616;SDS011;64200;55.426;37.758;2023-05-29T05:12:56;4.07;;;1.20;;
75616;SDS011;64200;55.426;37.758;2023-05-29T05:17:56;2.60;;;1.33;;
75616;SDS011;64200;55.426;37.758;2023-05-29T05:22:57;4.17;;;1.40;;
75616;SDS011;64200;55.426;37.758;2023-05-29T05:27:57;7.32;;;2.92;;
75616;SDS011;64200;55.426;37.758;2023-05-29T05:32:58;3.20;;;1.30;;
75616;SDS011;64200;55.426;37.758;2023-05-29T05:37:58;2.42;;;1.10;;
75616;SDS011;64200;55.426;37.758;2023-05-29T05:43:00;6.75;;;1.40;;
75616;SDS011;64200;55.426;37.758;2023-05-29T05:48:01;4.20;;;1.30;;
75616;SDS011;64200;55.426;37.758;2023-05-29T05:53:01;2.90;;;1.30;;
75616;SDS011;64200;55.426;37.758;2023-05-29T05:58:02;3.43;;;1.13;;
75616;SDS011;64200;55.426;37.758;2023-05-29T06:03:02;4.00;;;1.10;;
75616;SDS011;64200;55.426;37.758;2023-05-29T06:08:03;3.15;;;0.70;;
75616;SDS011;64200;55.426;37.758;2023-05-29T06:13:04;2.38;;;0.80;;
75616;SDS011;64200;55.426;37.758;2023-05-29T06:18:04;2.70;;;0.85;;
75616;SDS011;64200;55.426;37.758;2023-05-29T06:23:05;3.17;;;0.93;;
75616;SDS011;64200;55.426;37.758;2023-05-29T06:28:06;3.13;;;0.63;;
75616;SDS011;64200;55.426;37.758;2023-05-29T06:33:06;5.22;;;0.80;;
75616;SDS011;64200;55.426;37.758;2023-05-29T06:38:07;1.35;;;0.60;;
75616;SDS011;64200;55.426;37.758;2023-05-29T06:43:07;2.57;;;1.03;;
75616;SDS011;64200;55.426;37.758;2023-05-29T06:48:09;1.75;;;0.80;;
75616;SDS011;64200;55.426;37.758;2023-05-29T06:53:10;2.47;;;0.93;;
75616;SDS011;64200;55.426;37.758;2023-05-29T06:58:11;2.42;;;1.02;;
75616;SDS011;64200;55.426;37.758;2023-05-29T07:03:11;3.10;;;1.10;;
75616;SDS011;64200;55.426;37.758;2023-05-29T07:08:12;1.10;;;0.73;;
75616;SDS011;64200;55.426;37.758;2023-05-29T07:13:15;3.50;;;1.17;;
75616;SDS011;64200;55.426;37.758;2023-05-29T07:18:17;1.83;;;0.90;;
75616;SDS011;64200;55.426;37.758;2023-05-29T07:23:18;3.47;;;0.73;;
75616;SDS011;64200;55.426;37.758;2023-05-29T07:28:18;3.93;;;0.90;;
75616;SDS011;64200;55.426;37.758;2023-05-29T07:33:19;1.55;;;0.52;;
75616;SDS011;64200;55.426;37.758;2023-05-29T07:38:20;2.45;;;0.85;;
75616;SDS011;64200;55.426;37.758;2023-05-29T07:43:21;1.75;;;0.73;;
75616;SDS011;64200;55.426;37.758;2023-05-29T07:48:21;1.23;;;0.80;;
75616;SDS011;64200;55.426;37.758;2023-05-29T07:53:22;2.67;;;0.95;;
75616;SDS011;64200;55.426;37.758;2023-05-29T07:58:22;2.27;;;1.13;;
75616;SDS011;64200;55.426;37.758;2023-05-29T08:03:23;2.22;;;0.75;;
75616;SDS011;64200;55.426;37.758;2023-05-29T08:08:24;3.05;;;0.90;;
75616;SDS011;64200;55.426;37.758;2023-05-29T08:13:24;2.07;;;0.90;;
75616;SDS011;64200;55.426;37.758;2023-05-29T08:18:25;0.93;;;0.80;;
75616;SDS011;64200;55.426;37.758;2023-05-29T08:23:26;2.05;;;0.70;;
75616;SDS011;64200;55.426;37.758;2023-05-29T08:28:26;1.27;;;0.73;;
75616;SDS011;64200;55.426;37.758;2023-05-29T08:33:27;1.83;;;0.90;;
75616;SDS011;64200;55.426;37.758;2023-05-29T08:38:28;2.70;;;0.90;;
75616;SDS011;64200;55.426;37.758;2023-05-29T08:43:32;1.10;;;0.52;;
75616;SDS011;64200;55.426;37.758;2023-05-29T08:48:34;1.52;;;0.57;;
75616;SDS011;64200;55.426;37.758;2023-05-29T08:53:38;1.17;;;0.80;;
75616;SDS011;64200;55.426;37.758;2023-05-29T08:58:40;1.48;;;0.70;;
75616;SDS011;64200;55.426;37.758;2023-05-29T09:03:41;0.93;;;0.65;;
75616;SDS011;64200;55.426;37.758;2023-05-29T09:08:42;1.05;;;0.70;;
75616;SDS011;64200;55.426;37.758;2023-05-29T09:13:43;2.70;;;0.82;;
75616;SDS011;64200;55.426;37.758;2023-05-29T09:18:43;1.38;;;0.73;;
75616;SDS011;64200;55.426;37.758;2023-05-29T09:23:51;2.47;;;1.65;;
75616;SDS011;64200;55.426;37.758;2023-05-29T09:28:52;1.65;;;1.00;;
75616;SDS011;64200;55.426;37.758;2023-05-29T09:33:53;1.85;;;1.08;;
75616;SDS011;64200;55.426;37.758;2023-05-29T09:38:53;1.98;;;1.23;;
75616;SDS011;64200;55.426;37.758;2023-05-29T09:43:54;1.53;;;0.67;;
75616;SDS011;64200;55.426;37.758;2023-05-29T09:48:57;2.35;;;0.90;;
75616;SDS011;64200;55.426;37.758;2023-05-29T09:54:17;7.32;;;4.93;;
75616;SDS011;64200;55.426;37.758;2023-05-29T09:59:19;4.07;;;2.42;;
75616;SDS011;64200;55.426;37.758;2023-05-29T10:04:21;1.88;;;0.98;;
75616;SDS011;64200;55.426;37.758;2023-05-29T10:09:21;4.60;;;3.33;;
75616;SDS011;64200;55.426;37.758;2023-05-29T10:14:26;2.08;;;1.25;;
75616;SDS011;64200;55.426;37.758;2023-05-29T10:19:32;2.13;;;0.90;;
75616;SDS011;64200;55.426;37.758;2023-05-29T10:35:06;3.00;;;1.10;;
75616;SDS011;64200;55.426;37.758;2023-05-29T10:40:14;1.40;;;0.77;;
75616;SDS011;64200;55.426;37.758;2023-05-29T10:55:37;2.78;;;0.80;;
75616;SDS011;64200;55.426;37.758;2023-05-29T11:10:56;2.03;;;0.90;;
75616;SDS011;64200;55.426;37.758;2023-05-29T11:16:04;4.75;;;1.08;;
75616;SDS011;64200;55.426;37.758;2023-05-29T11:21:05;0.90;;;0.65;;
75616;SDS011;64200;55.426;37.758;2023-05-29T11:26:30;3.28;;;1.30;;
75616;SDS011;64200;55.426;37.758;2023-05-29T11:31:31;1.33;;;0.93;;
75616;SDS011;64200;55.426;37.758;2023-05-29T11:36:34;4.07;;;1.45;;
75616;SDS011;64200;55.426;37.758;2023-05-29T11:41:35;2.58;;;1.25;;
75616;SDS011;64200;55.426;37.758;2023-05-29T11:46:35;1.90;;;1.02;;
75616;SDS011;64200;55.426;37.758;2023-05-29T11:51:36;3.03;;;1.10;;
75616;SDS011;64200;55.426;37.758;2023-05-29T11:56:37;1.13;;;0.90;;
75616;SDS011;64200;55.426;37.758;2023-05-29T12:01:40;1.38;;;1.10;;
75616;SDS011;64200;55.426;37.758;2023-05-29T12:06:41;3.40;;;1.13;;
75616;SDS011;64200;55.426;37.758;2023-05-29T12:11:42;3.85;;;1.10;;
75616;SDS011;64200;55.426;37.758;2023-05-29T12:16:42;1.90;;;0.90;;
75616;SDS011;64200;55.426;37.758;2023-05-29T12:21:43;2.20;;;0.80;;
75616;SDS011;64200;55.426;37.758;2023-05-29T12:26:44;1.48;;;1.00;;
75616;SDS011;64200;55.426;37.758;2023-05-29T12:37:03;0.80;;;0.80;;
75616;SDS011;64200;55.426;37.758;2023-05-29T12:42:06;0.60;;;0.47;;
75616;SDS011;64200;55.426;37.758;2023-05-29T12:47:07;2.05;;;1.30;;
75616;SDS011;64200;55.426;37.758;2023-05-29T12:52:08;2.25;;;0.80;;
75616;SDS011;64200;55.426;37.758;2023-05-29T13:02:12;1.37;;;0.80;;
75616;SDS011;64200;55.426;37.758;2023-05-29T13:07:13;6.13;;;1.23;;
75616;SDS011;64200;55.426;37.758;2023-05-29T13:12:13;2.30;;;1.10;;
75616;SDS011;64200;55.426;37.758;2023-05-29T13:17:14;1.10;;;0.80;;
75616;SDS011;64200;55.426;37.758;2023-05-29T13:22:14;1.63;;;0.70;;
75616;SDS011;64200;55.426;37.758;2023-05-29T13:27:15;1.20;;;0.50;;
75616;SDS011;64200;55.426;37.758;2023-05-29T13:32:16;0.88;;;0.60;;
75616;SDS011;64200;55.426;37.758;2023-05-29T13:37:18;1.25;;;0.70;;
75616;SDS011;64200;55.426;37.758;2023-05-29T13:42:18;4.53;;;1.00;;
75616;SDS011;64200;55.426;37.758;2023-05-29T13:47:19;1.23;;;0.80;;
75616;SDS011;64200;55.426;37.758;2023-05-29T13:52:20;1.80;;;0.90;;
75616;SDS011;64200;55.426;37.758;2023-05-29T13:57:20;1.98;;;0.80;;
75616;SDS011;64200;55.426;37.758;2023-05-29T14:02:21;1.20;;;0.38;;
75616;SDS011;64200;55.426;37.758;2023-05-29T14:07:21;2.20;;;0.70;;
75616;SDS011;64200;55.426;37.758;2023-05-29T14:12:22;5.32;;;0.80;;
75616;SDS011;64200;55.426;37.758;2023-05-29T14:17:23;2.05;;;0.80;;
75616;SDS011;64200;55.426;37.758;2023-05-29T14:22:26;2.88;;;0.57;;
75616;SDS011;64200;55.426;37.758;2023-05-29T14:27:26;3.50;;;0.60;;
75616;SDS011;64200;55.426;37.758;2023-05-29T14:32:27;1.38;;;0.60;;
75616;SDS011;64200;55.426;37.758;2023-05-29T14:37:27;2.38;;;1.10;;
75616;SDS011;64200;55.426;37.758;2023-05-29T14:42:28;1.70;;;0.98;;
75616;SDS011;64200;55.426;37.758;2023-05-29T14:47:28;2.22;;;0.98;;
75616;SDS011;64200;55.426;37.758;2023-05-29T14:52:29;4.95;;;1.38;;
75616;SDS011;64200;55.426;37.758;2023-05-29T14:57:30;0.70;;;0.60;;
75616;SDS011;64200;55.426;37.758;2023-05-29T15:02:33;2.70;;;1.30;;
75616;SDS011;64200;55.426;37.758;2023-05-29T15:07:34;2.30;;;0.95;;
75616;SDS011;64200;55.426;37.758;2023-05-29T15:12:35;2.47;;;1.02;;
75616;SDS011;64200;55.426;37.758;2023-05-29T15:17:35;1.37;;;0.60;;
75616;SDS011;64200;55.426;37.758;2023-05-29T15:22:37;1.75;;;0.80;;
75616;SDS011;64200;55.426;37.758;2023-05-29T15:27:38;2.83;;;1.10;;
75616;SDS011;64200;55.426;37.758;2023-05-29T15:32:39;2.40;;;1.20;;
75616;SDS011;64200;55.426;37.758;2023-05-29T15:37:41;3.50;;;0.65;;
75616;SDS011;64200;55.426;37.758;2023-05-29T15:42:42;2.75;;;0.90;;
75616;SDS011;64200;55.426;37.758;2023-05-29T15:47:43;2.03;;;0.90;;
75616;SDS011;64200;55.426;37.758;2023-05-29T15:52:43;2.63;;;0.90;;
75616;SDS011;64200;55.426;37.758;2023-05-29T15:57:44;2.38;;;1.00;;
75616;SDS011;64200;55.426;37.758;2023-05-29T16:02:45;2.42;;;0.90;;
75616;SDS011;64200;55.426;37.758;2023-05-29T16:07:45;2.38;;;1.30;;
75616;SDS011;64200;55.426;37.758;2023-05-29T16:12:47;1.92;;;0.80;;
75616;SDS011;64200;55.426;37.758;2023-05-29T16:17:51;2.67;;;1.23;;
75616;SDS011;64200;55.426;37.758;2023-05-29T16:22:51;2.65;;;1.05;;
75616;SDS011;64200;55.426;37.758;2023-05-29T16:27:52;2.77;;;0.90;;
75616;SDS011;64200;55.426;37.758;2023-05-29T16:32:52;2.33;;;0.90;;
75616;SDS011;64200;55.426;37.758;2023-05-29T16:37:53;3.90;;;1.77;;
75616;SDS011;64200;55.426;37.758;2023-05-29T16:42:53;4.73;;;1.40;;
75616;SDS011;64200;55.426;37.758;2023-05-29T16:47:54;3.65;;;1.20;;
75616;SDS011;64200;55.426;37.758;2023-05-29T16:52:55;4.38;;;1.45;;
75616;SDS011;64200;55.426;37.758;2023-05-29T16:57:55;2.83;;;1.37;;
75616;SDS011;64200;55.426;37.758;2023-05-29T17:02:55;3.10;;;1.30;;
75616;SDS011;64200;55.426;37.758;2023-05-29T17:07:56;3.78;;;1.52;;
75616;SDS011;64200;55.426;37.758;2023-05-29T17:12:57;3.20;;;1.00;;
75616;SDS011;64200;55.426;37.758;2023-05-29T17:18:00;2.85;;;0.95;;
75616;SDS011;64200;55.426;37.758;2023-05-29T17:23:01;3.55;;;1.30;;
75616;SDS011;64200;55.426;37.758;2023-05-29T17:28:01;2.97;;;1.30;;
75616;SDS011;64200;55.426;37.758;2023-05-29T17:33:02;2.20;;;1.30;;
75616;SDS011;64200;55.426;37.758;2023-05-29T17:38:04;2.63;;;2.42;;
75616;SDS011;64200;55.426;37.758;2023-05-29T17:43:04;5.07;;;1.10;;
75616;SDS011;64200;55.426;37.758;2023-05-29T17:48:05;2.45;;;0.88;;
75616;SDS011;64200;55.426;37.758;2023-05-29T17:53:06;1.20;;;0.80;;
75616;SDS011;64200;55.426;37.758;2023-05-29T17:58:07;2.92;;;1.10;;
75616;SDS011;64200;55.426;37.758;2023-05-29T18:03:07;4.38;;;1.05;;
75616;SDS011;64200;55.426;37.758;2023-05-29T18:08:08;5.20;;;1.30;;
75616;SDS011;64200;55.426;37.758;2023-05-29T18:13:09;4.10;;;1.83;;
75616;SDS011;64200;55.426;37.758;2023-05-29T18:18:09;5.28;;;1.77;;
75616;SDS011;64200;55.426;37.758;2023-05-29T18:23:10;5.22;;;1.77;;
75616;SDS011;64200;55.426;37.758;2023-05-29T18:28:10;5.25;;;2.33;;
75616;SDS011;64200;55.426;37.758;2023-05-29T18:33:11;4.32;;;1.50;;
75616;SDS011;64200;55.426;37.758;2023-05-29T18:38:12;3.33;;;1.63;;
75616;SDS011;64200;55.426;37.758;2023-05-29T18:43:13;5.68;;;1.65;;
75616;SDS011;64200;55.426;37.758;2023-05-29T18:48:13;3.90;;;1.48;;
75616;SDS011;64200;55.426;37.758;2023-05-29T18:53:14;6.53;;;1.60;;
75616;SDS011;64200;55.426;37.758;2023-05-29T18:58:15;3.75;;;1.40;;
75616;SDS011;64200;55.426;37.758;2023-05-29T19:03:15;4.05;;;1.35;;
75616;SDS011;64200;55.426;37.758;2023-05-29T19:08:16;5.60;;;1.63;;
75616;SDS011;64200;55.426;37.758;2023-05-29T19:13:17;4.93;;;1.23;;
75616;SDS011;64200;55.426;37.758;2023-05-29T19:18:18;5.97;;;1.48;;
75616;SDS011;64200;55.426;37.758;2023-05-29T19:23:18;4.10;;;1.30;;
75616;SDS011;64200;55.426;37.758;2023-05-29T19:28:19;3.08;;;1.63;;
75616;SDS011;64200;55.426;37.758;2023-05-29T19:33:20;3.63;;;1.80;;
75616;SDS011;64200;55.426;37.758;2023-05-29T19:38:20;2.08;;;1.55;;
75616;SDS011;64200;55.426;37.758;2023-05-29T19:43:21;4.28;;;2.10;;
75616;SDS011;64200;55.426;37.758;2023-05-29T19:48:24;2.50;;;1.77;;
75616;SDS011;64200;55.426;37.758;2023-05-29T19:53:27;1.70;;;1.27;;
75616;SDS011;64200;55.426;37.758;2023-05-29T19:58:28;2.65;;;1.40;;
75616;SDS011;64200;55.426;37.758;2023-05-29T20:03:28;2.65;;;1.50;;
75616;SDS011;64200;55.426;37.758;2023-05-29T20:08:31;3.58;;;1.67;;
75616;SDS011;64200;55.426;37.758;2023-05-29T20:13:32;3.63;;;1.60;;
75616;SDS011;64200;55.426;37.758;2023-05-29T20:18:32;4.70;;;1.50;;
75616;SDS011;64200;55.426;37.758;2023-05-29T20:23:34;2.22;;;1.35;;
75616;SDS011;64200;55.426;37.758;2023-05-29T20:28:35;3.90;;;1.50;;
75616;SDS011;64200;55.426;37.758;2023-05-29T20:33:36;5.63;;;2.00;;
75616;SDS011;64200;55.426;37.758;2023-05-29T20:38:36;3.90;;;2.00;;
75616;SDS011;64200;55.426;37.758;2023-05-29T20:43:38;3.65;;;1.80;;
75616;SDS011;64200;55.426;37.758;2023-05-29T20:48:39;6.18;;;2.17;;
75616;SDS011;64200;55.426;37.758;2023-05-29T20:53:39;4.90;;;2.10;;
75616;SDS011;64200;55.426;37.758;2023-05-29T20:58:42;3.83;;;2.47;;
75616;SDS011;64200;55.426;37.758;2023-05-29T21:03:43;3.75;;;2.10;;
75616;SDS011;64200;55.426;37.758;2023-05-29T21:08:44;5.97;;;2.10;;
75616;SDS011;64200;55.426;37.758;2023-05-29T21:13:44;3.30;;;2.07;;
75616;SDS011;64200;55.426;37.758;2023-05-29T21:18:45;3.05;;;1.98;;
75616;SDS011;64200;55.426;37.758;2023-05-29T21:23:45;4.22;;;2.30;;
75616;SDS011;64200;55.426;37.758;2023-05-29T21:28:46;6.18;;;2.67;;
75616;SDS011;64200;55.426;37.758;2023-05-29T21:33:47;4.67;;;2.03;;
75616;SDS011;64200;55.426;37.758;2023-05-29T21:38:47;5.33;;;2.20;;
75616;SDS011;64200;55.426;37.758;2023-05-29T21:43:49;4.35;;;2.05;;
75616;SDS011;64200;55.426;37.758;2023-05-29T21:48:50;5.50;;;1.60;;
75616;SDS011;64200;55.426;37.758;2023-05-29T21:53:50;1.98;;;1.50;;
75616;SDS011;64200;55.426;37.758;2023-05-29T21:58:52;5.22;;;1.67;;
75616;SDS011;64200;55.426;37.758;2023-05-29T22:03:52;3.17;;;1.38;;
75616;SDS011;64200;55.426;37.758;2023-05-29T22:08:53;2.33;;;1.57;;
75616;SDS011;64200;55.426;37.758;2023-05-29T22:13:53;3.83;;;1.70;;
75616;SDS011;64200;55.426;37.758;2023-05-29T22:18:54;3.20;;;1.88;;
75616;SDS011;64200;55.426;37.758;2023-05-29T22:23:55;4.70;;;2.08;;
75616;SDS011;64200;55.426;37.758;2023-05-29T22:28:55;4.20;;;1.70;;
75616;SDS011;64200;55.426;37.758;2023-05-29T22:33:56;3.13;;;1.87;;
75616;SDS011;64200;55.426;37.758;2023-05-29T22:38:56;2.85;;;1.90;;
75616;SDS011;64200;55.426;37.758;2023-05-29T22:43:57;3.92;;;2.00;;
75616;SDS011;64200;55.426;37.758;2023-05-29T22:48:58;8.50;;;2.70;;
75616;SDS011;64200;55.426;37.758;2023-05-29T22:53:58;4.13;;;1.90;;
75616;SDS011;64200;55.426;37.758;2023-05-29T22:59:03;3.70;;;1.33;;
75616;SDS011;64200;55.426;37.758;2023-05-29T23:04:04;2.83;;;1.75;;
75616;SDS011;64200;55.426;37.758;2023-05-29T23:09:05;2.08;;;1.08;;
75616;SDS011;64200;55.426;37.758;2023-05-29T23:14:05;2.25;;;1.20;;
75616;SDS011;64200;55.426;37.758;2023-05-29T23:19:06;6.00;;;1.85;;
75616;SDS011;64200;55.426;37.758;2023-05-29T23:24:07;4.13;;;1.83;;
75616;SDS011;64200;55.426;37.758;2023-05-29T23:29:07;3.53;;;1.63;;
75616;SDS011;64200;55.426;37.758;2023-05-29T23:34:08;3.65;;;2.28;;
75616;SDS011;64200;55.426;37.758;2023-05-29T23:39:08;6.33;;;1.90;;
75616;SDS011;64200;55.426;37.758;2023-05-29T23:44:09;3.00;;;1.70;;
75616;SDS011;64200;55.426;37.758;2023-05-29T23:49:10;3.92;;;1.77;;
75616;SDS011;64200;55.426;37.758;2023-05-29T23:54:10;2.20;;;1.13;;
75616;SDS011;64200;55.426;37.758;2023-05-29T23:59:11;2.28;;;1.52;;
